Terminal Aerodrome Forecast
Issued by NWS North Platte, NE

Home | Current Version | Previous Version | Graphics & Text | Print | Product List | Glossary On
Versions: 1 2 3 4 5 6 7 8 9 10 11 12 13 14 15 16 17 18 19 20 21 22 23
000
FTUS43 KLBF 232320
TAFVTN
TAF
KVTN 232320Z 2400/2424 VRB06KT P6SM BKN150
     FM240200 02013G19KT P6SM VCTS BKN080CB
     FM240400 01015G23KT P6SM -SHRA OVC040
      TEMPO 2404/2405 4SM TSRA OVC025CB
     FM240500 01016G23KT 5SM -SHRA OVC015
      TEMPO 2405/2406 2SM TS OVC007CB
     FM240800 36018G25KT 3SM -SHRA OVC008
     FM241600 01020G28KT 3SM -SHRA OVC010
     FM241800 01019G27KT P6SM OVC015
     FM242000 01018G25KT P6SM OVC040=

USA.gov is the U.S. government's official web portal to all federal, state and local government web resources and services.